createdAt,value
2023-02-11T00:01:56.354Z,69.54
2023-02-11T00:06:58.019Z,69.46
2023-02-11T00:12:03.835Z,69.62
2023-02-11T00:17:05.475Z,69.75
2023-02-11T00:22:07.482Z,70.10
2023-02-11T00:27:09.411Z,70.45
2023-02-11T00:32:11.263Z,70.34
2023-02-11T00:37:13.098Z,70.64
2023-02-11T00:42:16.924Z,70.93
2023-02-11T00:47:20.223Z,70.87
2023-02-11T00:52:27.422Z,71.08
2023-02-11T00:57:29.422Z,71.01
2023-02-11T01:02:31.357Z,71.42
2023-02-11T01:07:35.313Z,71.47
2023-02-11T01:12:40.150Z,71.66
2023-02-11T01:17:46.398Z,71.59
2023-02-11T01:22:56.586Z,71.91
2023-02-11T01:28:16.025Z,72.07
2023-02-11T01:33:34.250Z,72.11
2023-02-11T01:38:54.670Z,72.00
2023-02-11T01:44:30.899Z,71.91
2023-02-11T01:49:45.387Z,72.13
2023-02-11T01:55:13.878Z,72.24
2023-02-11T02:00:29.168Z,71.97
2023-02-11T02:06:02.748Z,72.02
2023-02-11T02:11:27.749Z,72.21
2023-02-11T02:16:33.469Z,72.14
2023-02-11T02:21:42.055Z,72.28
2023-02-11T02:27:39.157Z,72.10
2023-02-11T02:33:24.547Z,71.85
2023-02-11T02:38:56.609Z,71.70
2023-02-11T02:44:11.883Z,71.39
2023-02-11T02:49:24.108Z,71.20
2023-02-11T02:54:46.382Z,70.69
2023-02-11T03:00:07.266Z,70.44
2023-02-11T03:05:15.139Z,70.18
2023-02-11T03:10:31.039Z,70.06
2023-02-11T03:15:43.921Z,69.80
2023-02-11T03:21:22.482Z,69.84
2023-02-11T03:26:40.284Z,69.54
2023-02-11T03:31:52.465Z,69.44
2023-02-11T03:37:01.976Z,69.63
2023-02-11T03:42:15.783Z,69.48
2023-02-11T03:47:26.996Z,69.47
2023-02-11T03:52:32.176Z,69.31
2023-02-11T03:57:36.631Z,69.20
2023-02-11T04:02:42.737Z,68.95
2023-02-11T04:07:44.650Z,69.00
2023-02-11T04:12:54.066Z,68.91
2023-02-11T04:17:58.174Z,68.75
2023-02-11T04:23:00.268Z,68.77
2023-02-11T04:28:01.898Z,68.67
2023-02-11T04:33:03.582Z,68.61
2023-02-11T04:38:13.225Z,68.71
2023-02-11T04:43:19.779Z,68.81
2023-02-11T04:48:28.720Z,69.02
2023-02-11T04:53:32.912Z,69.20
2023-02-11T04:58:37.651Z,69.12
2023-02-11T05:03:39.663Z,69.14
2023-02-11T05:08:44.518Z,69.35
2023-02-11T05:13:46.842Z,69.29
2023-02-11T05:18:53.101Z,69.27
2023-02-11T05:23:57.488Z,69.30
2023-02-11T05:28:59.394Z,69.29
2023-02-11T05:34:03.364Z,69.24
2023-02-11T05:39:05.542Z,69.27
2023-02-11T05:44:15.842Z,69.61
2023-02-11T05:49:19.803Z,69.50
2023-02-11T05:54:24.195Z,69.51
2023-02-11T05:59:28.984Z,69.45
2023-02-11T06:04:30.678Z,69.53
2023-02-11T06:09:34.787Z,69.70
2023-02-11T06:14:36.888Z,69.88
2023-02-11T06:19:41.035Z,69.92
2023-02-11T06:25:00.361Z,70.32
2023-02-11T06:30:09.563Z,70.20
2023-02-11T06:35:14.083Z,70.35
2023-02-11T06:40:16.055Z,70.38
2023-02-11T06:45:32.632Z,70.19
2023-02-11T06:50:34.464Z,70.24
2023-02-11T06:55:39.316Z,70.18
2023-02-11T07:00:41.360Z,70.18
2023-02-11T07:05:43.334Z,70.15
2023-02-11T07:10:47.466Z,70.15
2023-02-11T07:15:51.757Z,69.96
2023-02-11T07:20:53.309Z,69.84
2023-02-11T07:25:57.272Z,69.88
2023-02-11T07:30:58.995Z,70.02
2023-02-11T07:36:07.839Z,69.90
2023-02-11T07:41:33.719Z,68.77
2023-02-11T07:46:42.405Z,67.46
2023-02-11T07:52:29.806Z,67.24
2023-02-11T07:57:56.015Z,67.37
2023-02-11T08:04:19.813Z,67.06
2023-02-11T08:09:36.661Z,66.53
2023-02-11T08:15:11.943Z,66.60
2023-02-11T08:20:27.073Z,66.13
2023-02-11T08:25:34.513Z,66.07
2023-02-11T08:30:40.867Z,66.03
2023-02-11T08:35:59.502Z,65.94
2023-02-11T08:41:48.423Z,65.99
2023-02-11T08:47:51.998Z,66.11
2023-02-11T08:53:17.575Z,65.46
2023-02-11T08:59:00.888Z,65.38
2023-02-11T09:04:02.622Z,64.84
2023-02-11T09:09:04.439Z,64.71
2023-02-11T09:14:06.193Z,64.10
2023-02-11T09:19:09.670Z,63.75
2023-02-11T09:24:11.582Z,64.13
2023-02-11T09:29:13.120Z,64.20
2023-02-11T09:34:15.435Z,63.95
2023-02-11T09:39:19.739Z,63.92
2023-02-11T09:44:24.820Z,64.07
2023-02-11T09:49:39.932Z,64.40
2023-02-11T09:54:50.322Z,64.16
2023-02-11T09:59:54.080Z,63.80
2023-02-11T10:05:16.126Z,62.82
2023-02-11T10:10:37.410Z,62.41
2023-02-11T10:15:52.931Z,62.50
2023-02-11T10:21:45.895Z,62.06
2023-02-11T10:26:48.647Z,62.04
2023-02-11T10:31:58.453Z,62.17
2023-02-11T10:37:13.742Z,62.14
2023-02-11T10:43:11.788Z,62.08
2023-02-11T10:48:51.795Z,61.63
2023-02-11T10:54:15.774Z,60.27
2023-02-11T11:00:19.844Z,59.86
2023-02-11T11:06:06.192Z,59.34
2023-02-11T11:11:36.125Z,60.34
2023-02-11T11:16:53.928Z,61.38
2023-02-11T11:22:18.837Z,62.22
2023-02-11T11:27:59.559Z,62.61
2023-02-11T11:33:44.206Z,62.97
2023-02-11T11:39:32.467Z,63.50
2023-02-11T11:45:19.228Z,63.52
2023-02-11T11:50:30.480Z,63.79
2023-02-11T11:55:43.289Z,64.06
2023-02-11T12:01:01.462Z,63.95
2023-02-11T12:06:57.347Z,63.85
2023-02-11T12:13:12.711Z,64.00
2023-02-11T12:18:46.961Z,64.18
2023-02-11T12:24:30.234Z,64.13
2023-02-11T12:30:10.425Z,64.10
2023-02-11T12:35:29.624Z,64.66
2023-02-11T12:41:52.625Z,65.09
2023-02-11T12:47:26.573Z,66.37
2023-02-11T12:52:55.940Z,68.32
2023-02-11T12:58:02.372Z,69.68
2023-02-11T13:03:16.205Z,71.15
2023-02-11T13:08:47.319Z,71.53
2023-02-11T13:14:05.919Z,71.55
2023-02-11T13:19:47.871Z,72.16
2023-02-11T13:25:47.338Z,72.22
2023-02-11T13:31:11.925Z,72.17
2023-02-11T13:36:19.987Z,72.41
2023-02-11T13:41:32.247Z,72.97
2023-02-11T13:47:10.809Z,74.02
2023-02-11T13:52:38.216Z,74.23
2023-02-11T13:58:26.485Z,73.66
2023-02-11T14:04:46.385Z,73.03
2023-02-11T14:10:49.107Z,72.44
2023-02-11T14:16:38.399Z,72.16
2023-02-11T14:22:29.339Z,71.53
2023-02-11T14:29:01.156Z,71.64
2023-02-11T14:35:14.531Z,71.77
2023-02-11T14:40:58.229Z,72.02
2023-02-11T14:46:19.769Z,71.95
2023-02-11T14:51:49.507Z,71.90
2023-02-11T14:57:15.622Z,71.72
2023-02-11T15:02:47.820Z,71.62
2023-02-11T15:08:30.451Z,71.51
2023-02-11T15:13:47.667Z,71.47
2023-02-11T15:19:44.695Z,71.49
2023-02-11T15:25:35.645Z,71.50
2023-02-11T15:31:17.670Z,71.72
2023-02-11T15:37:03.644Z,72.82
2023-02-11T15:43:12.725Z,74.12
2023-02-11T15:49:03.575Z,75.23
2023-02-11T15:54:46.791Z,76.04
2023-02-11T16:00:59.479Z,76.18
2023-02-11T16:07:08.636Z,77.86
2023-02-11T16:12:35.417Z,78.47
2023-02-11T16:17:59.749Z,79.55
2023-02-11T16:23:07.792Z,80.46
2023-02-11T16:28:40.182Z,81.04
2023-02-11T16:34:45.357Z,82.12
2023-02-11T16:39:57.591Z,82.30
2023-02-11T16:45:05.362Z,82.79
2023-02-11T16:50:30.467Z,82.76
2023-02-11T16:56:13.292Z,82.84
2023-02-11T17:01:37.853Z,83.09
2023-02-11T17:07:02.824Z,83.43
2023-02-11T17:12:29.488Z,82.90
2023-02-11T17:17:47.830Z,83.18
2023-02-11T17:22:56.229Z,83.33
2023-02-11T17:28:29.324Z,83.34
2023-02-11T17:33:51.694Z,83.70
2023-02-11T17:39:38.936Z,83.77
2023-02-11T17:45:22.508Z,83.87
2023-02-11T17:50:45.194Z,84.10
2023-02-11T17:56:01.842Z,84.36
2023-02-11T18:01:06.762Z,84.31
2023-02-11T18:06:08.418Z,84.97
2023-02-11T18:11:12.031Z,85.05
2023-02-11T18:16:15.080Z,84.82
2023-02-11T18:21:19.653Z,84.68
2023-02-11T18:26:21.527Z,84.67
2023-02-11T18:31:39.828Z,84.56
2023-02-11T18:36:44.997Z,84.62
2023-02-11T18:41:49.043Z,84.62
2023-02-11T18:46:53.321Z,84.60
2023-02-11T18:51:55.016Z,84.48
2023-02-11T18:56:56.907Z,84.30
2023-02-11T19:01:58.692Z,84.14
2023-02-11T19:07:03.263Z,84.06
2023-02-11T20:32:15.677Z,76.05
2023-02-11T20:37:20.134Z,78.47
2023-02-11T20:42:21.845Z,79.87
2023-02-11T20:47:23.668Z,81.10
2023-02-11T20:52:25.682Z,81.66
2023-02-11T20:58:26.949Z,82.14
2023-02-11T21:05:00.298Z,82.67
2023-02-11T21:11:23.806Z,82.75
2023-02-11T21:17:27.359Z,82.99
2023-02-11T21:22:29.177Z,83.17
2023-02-11T21:27:33.008Z,83.21
2023-02-11T21:32:34.685Z,83.27
2023-02-11T21:37:38.963Z,83.35
2023-02-11T21:42:41.194Z,83.45
2023-02-11T21:48:42.725Z,83.33
2023-02-11T21:55:06.152Z,83.28
2023-02-11T22:00:28.231Z,83.42
2023-02-11T22:05:32.219Z,83.62
2023-02-11T22:11:33.338Z,83.60
2023-02-11T22:17:35.556Z,83.73
2023-02-11T22:24:06.926Z,83.89
2023-02-11T22:30:28.007Z,83.82
2023-02-11T22:36:25.006Z,83.63
2023-02-11T22:42:32.274Z,83.83
2023-02-11T22:48:40.651Z,83.85
2023-02-11T22:55:43.175Z,84.02
2023-02-11T23:02:27.667Z,84.02
2023-02-11T23:09:11.278Z,84.12
2023-02-11T23:15:32.598Z,84.03
2023-02-11T23:22:12.091Z,84.17
2023-02-11T23:28:49.621Z,84.16
2023-02-11T23:34:30.368Z,84.22
2023-02-11T23:39:34.862Z,84.11
2023-02-11T23:45:16.924Z,84.00
2023-02-11T23:50:46.483Z,83.94
2023-02-11T23:56:26.113Z,84.15
